createdAt,value
2018-10-02T00:00:12.459Z,100792.00
2018-10-02T00:05:15.444Z,100790.00
2018-10-02T00:10:18.447Z,100795.00
2018-10-02T00:15:21.487Z,100795.00
2018-10-02T00:20:24.479Z,100799.00
2018-10-02T00:25:27.459Z,100793.00
2018-10-02T00:30:30.439Z,100797.00
2018-10-02T00:35:33.439Z,100794.00
2018-10-02T00:40:36.473Z,100783.00
2018-10-02T00:45:39.583Z,100782.00
2018-10-02T00:50:42.963Z,100780.00
2018-10-02T00:55:45.987Z,100765.00
2018-10-02T01:00:48.970Z,100768.00
2018-10-02T01:05:52.039Z,100769.00
2018-10-02T01:10:55.007Z,100769.00
2018-10-02T01:15:58.001Z,100765.00
2018-10-02T01:21:03.192Z,100763.00
2018-10-02T01:26:06.207Z,100761.00
2018-10-02T01:31:09.188Z,100756.00
2018-10-02T01:36:12.240Z,100756.00
2018-10-02T01:41:15.210Z,100754.00
2018-10-02T01:46:18.161Z,100756.00
2018-10-02T01:51:21.160Z,100753.00
2018-10-02T01:56:24.104Z,100738.00
2018-10-02T02:01:27.101Z,100738.00
2018-10-02T02:06:30.078Z,100745.00
2018-10-02T02:11:33.142Z,100760.00
2018-10-02T02:16:36.516Z,100753.00
2018-10-02T02:21:39.511Z,100758.00
2018-10-02T02:26:42.547Z,100768.00
2018-10-02T02:31:45.575Z,100760.00
2018-10-02T02:36:48.549Z,100755.00
2018-10-02T02:41:51.515Z,100754.00
2018-10-02T02:46:58.540Z,100765.00
2018-10-02T02:52:02.834Z,100767.00
2018-10-02T02:57:06.228Z,100765.00
2018-10-02T03:02:09.332Z,100769.00
2018-10-02T03:07:12.306Z,100771.00
2018-10-02T03:12:15.305Z,100768.00
2018-10-02T03:17:18.311Z,100745.00
2018-10-02T03:22:21.494Z,100757.00
2018-10-02T03:27:24.464Z,100762.00
2018-10-02T03:32:27.402Z,100761.00
2018-10-02T03:37:30.319Z,100760.00
2018-10-02T03:42:33.261Z,100759.00
2018-10-02T03:47:36.185Z,100759.00
2018-10-02T03:52:39.236Z,100758.00
2018-10-02T03:57:42.205Z,100759.00
2018-10-02T04:02:45.230Z,100747.00
2018-10-02T04:07:48.426Z,100748.00
2018-10-02T04:12:51.532Z,100750.00
2018-10-02T04:17:54.504Z,100732.00
2018-10-02T04:22:57.567Z,100718.00
2018-10-02T04:28:03.384Z,100718.00
2018-10-02T04:33:06.740Z,100735.00
2018-10-02T04:38:09.737Z,100729.00
2018-10-02T04:43:12.875Z,100724.00
2018-10-02T04:48:15.861Z,100733.00
2018-10-02T04:53:19.421Z,100737.00
2018-10-02T04:58:22.421Z,100716.00
2018-10-02T05:03:25.999Z,100726.00
2018-10-02T05:08:29.368Z,100714.00
2018-10-02T05:13:32.299Z,100735.00
2018-10-02T05:18:35.437Z,100723.00
2018-10-02T05:23:38.398Z,100726.00
2018-10-02T05:28:41.351Z,100725.00
2018-10-02T05:33:44.336Z,100724.00
2018-10-02T05:38:47.823Z,100725.00
2018-10-02T05:43:50.806Z,100726.00
2018-10-02T05:48:53.838Z,100733.00
2018-10-02T05:53:56.885Z,100734.00
2018-10-02T05:59:03.056Z,100756.00
2018-10-02T06:04:06.570Z,100746.00
2018-10-02T06:09:11.226Z,100754.00
2018-10-02T06:14:14.199Z,100737.00
2018-10-02T06:19:17.175Z,100728.00
2018-10-02T06:24:20.154Z,100724.00
2018-10-02T06:29:23.310Z,100727.00
2018-10-02T06:34:26.251Z,100743.00
2018-10-02T06:39:30.572Z,100735.00
2018-10-02T06:44:33.816Z,100755.00
2018-10-02T06:49:36.777Z,100767.00
2018-10-02T06:54:39.745Z,100769.00
2018-10-02T06:59:42.700Z,100777.00
2018-10-02T07:04:46.009Z,100772.00
2018-10-02T07:09:49.111Z,100764.00
2018-10-02T07:14:52.165Z,100763.00
2018-10-02T07:19:55.152Z,100752.00
2018-10-02T07:24:58.160Z,100758.00
2018-10-02T07:30:03.622Z,100756.00
2018-10-02T07:35:06.848Z,100740.00
2018-10-02T07:40:10.599Z,100749.00
2018-10-02T07:45:13.557Z,100750.00
2018-10-02T07:50:17.107Z,100744.00
2018-10-02T07:55:20.240Z,100753.00
2018-10-02T08:00:23.343Z,100759.00
2018-10-02T08:05:26.504Z,100778.00
2018-10-02T08:10:29.607Z,100771.00
2018-10-02T08:15:32.642Z,100778.00
2018-10-02T08:20:35.735Z,100774.00
2018-10-02T08:25:44.224Z,100768.00
2018-10-02T08:30:47.330Z,100761.00
2018-10-02T08:35:50.597Z,100761.00
2018-10-02T08:40:53.487Z,100766.00
2018-10-02T08:45:56.565Z,100763.00
2018-10-02T08:50:59.656Z,100769.00
2018-10-02T08:56:03.222Z,100763.00
2018-10-02T09:01:07.277Z,100742.00
2018-10-02T09:06:10.309Z,100737.00
2018-10-02T09:11:13.377Z,100742.00
2018-10-02T09:16:16.447Z,100736.00
2018-10-02T09:21:19.577Z,100734.00
2018-10-02T09:26:22.568Z,100747.00
2018-10-02T09:31:31.452Z,100742.00
2018-10-02T09:36:40.202Z,100735.00
2018-10-02T09:41:48.997Z,100739.00
2018-10-02T09:46:52.487Z,100731.00
2018-10-02T09:51:55.651Z,100727.00
2018-10-02T09:56:58.620Z,100726.00
2018-10-02T10:02:08.578Z,100728.00
2018-10-02T10:07:11.667Z,100714.00
2018-10-02T10:12:15.552Z,100706.00
2018-10-02T10:17:18.618Z,100697.00
2018-10-02T10:22:21.550Z,100692.00
2018-10-02T10:27:24.628Z,100712.00
2018-10-02T10:32:27.722Z,100701.00
2018-10-02T10:37:30.726Z,100693.00
2018-10-02T10:42:33.984Z,100706.00
2018-10-02T10:47:37.023Z,100690.00
2018-10-02T10:52:40.206Z,100690.00
2018-10-02T10:57:43.238Z,100682.00
2018-10-02T11:02:46.463Z,100680.00
2018-10-02T11:07:49.503Z,100672.00
2018-10-02T11:12:52.591Z,100675.00
2018-10-02T11:17:55.624Z,100670.00
2018-10-02T11:22:58.636Z,100668.00
2018-10-02T11:28:02.805Z,100658.00
2018-10-02T11:33:06.377Z,100648.00
2018-10-02T11:38:09.563Z,100649.00
2018-10-02T11:43:12.736Z,100654.00
2018-10-02T11:48:15.812Z,100646.00
2018-10-02T11:53:18.880Z,100640.00
2018-10-02T11:58:21.862Z,100633.00
2018-10-02T12:03:24.977Z,100627.00
2018-10-02T12:08:28.154Z,100626.00
2018-10-02T12:13:31.129Z,100614.00
2018-10-02T12:18:34.147Z,100619.00
2018-10-02T12:23:37.307Z,100614.00
2018-10-02T12:28:40.312Z,100612.00
2018-10-02T12:33:43.543Z,100613.00
2018-10-02T12:38:46.592Z,100620.00
2018-10-02T12:43:49.832Z,100615.00
2018-10-02T12:48:53.049Z,100621.00
2018-10-02T12:53:56.248Z,100618.00
2018-10-02T12:58:59.377Z,100625.00
2018-10-02T13:04:03.443Z,100612.00
2018-10-02T13:09:07.984Z,100616.00
2018-10-02T13:14:11.053Z,100603.00
2018-10-02T13:19:14.136Z,100598.00
2018-10-02T13:24:17.131Z,100590.00
2018-10-02T13:29:20.148Z,100587.00
2018-10-02T13:34:23.231Z,100583.00
2018-10-02T13:39:26.390Z,100580.00
2018-10-02T13:44:29.409Z,100582.00
2018-10-02T13:49:32.423Z,100578.00
2018-10-02T13:54:35.484Z,100573.00
2018-10-02T13:59:38.537Z,100555.00
2018-10-02T14:04:41.819Z,100560.00
2018-10-02T14:09:44.936Z,100558.00
2018-10-02T14:14:48.000Z,100557.00
2018-10-02T14:19:50.974Z,100568.00
2018-10-02T14:24:54.756Z,100562.00
2018-10-02T14:29:58.076Z,100564.00
2018-10-02T14:35:03.699Z,100569.00
2018-10-02T14:40:06.781Z,100576.00
2018-10-02T14:45:10.015Z,100576.00
2018-10-02T14:50:13.152Z,100569.00
2018-10-02T14:55:16.212Z,100568.00
2018-10-02T15:00:19.247Z,100559.00
2018-10-02T15:05:22.376Z,100560.00
2018-10-02T15:10:25.452Z,100564.00
2018-10-02T15:15:28.503Z,100549.00
2018-10-02T15:20:31.528Z,100559.00
2018-10-02T15:25:34.601Z,100560.00
2018-10-02T15:30:37.695Z,100548.00
2018-10-02T15:35:40.706Z,100548.00
2018-10-02T15:40:43.812Z,100538.00
2018-10-02T15:45:46.909Z,100536.00
2018-10-02T15:50:50.096Z,100537.00
2018-10-02T15:55:53.100Z,100525.00
2018-10-02T16:00:56.317Z,100511.00
2018-10-02T16:05:59.290Z,100523.00
2018-10-02T16:11:03.487Z,100518.00
2018-10-02T16:16:06.992Z,100526.00
2018-10-02T16:21:10.097Z,100525.00
2018-10-02T16:26:13.266Z,100519.00
2018-10-02T16:31:16.257Z,100528.00
2018-10-02T16:36:19.293Z,100533.00
2018-10-02T16:41:22.406Z,100532.00
2018-10-02T16:46:25.642Z,100541.00
2018-10-02T16:51:28.823Z,100547.00
2018-10-02T16:56:32.071Z,100560.00
2018-10-02T17:01:35.218Z,100546.00
2018-10-02T17:06:38.531Z,100557.00
2018-10-02T17:11:41.572Z,100560.00
2018-10-02T17:16:44.792Z,100562.00
2018-10-02T17:21:47.688Z,100569.00
2018-10-02T17:26:50.622Z,100576.00
2018-10-02T17:31:53.701Z,100596.00
2018-10-02T17:36:56.748Z,100583.00
2018-10-02T17:42:00.149Z,100580.00
2018-10-02T17:47:03.931Z,100589.00
2018-10-02T17:52:07.221Z,100594.00
2018-10-02T17:57:10.190Z,100604.00
2018-10-02T18:02:13.239Z,100606.00
2018-10-02T18:07:16.280Z,100608.00
2018-10-02T18:12:19.428Z,100611.00
2018-10-02T18:17:22.524Z,100617.00
2018-10-02T18:22:25.596Z,100624.00
2018-10-02T18:27:28.763Z,100624.00
2018-10-02T18:32:31.905Z,100640.00
2018-10-02T18:37:35.618Z,100635.00
2018-10-02T18:42:38.643Z,100650.00
2018-10-02T18:47:41.751Z,100648.00
2018-10-02T18:52:45.890Z,100646.00
2018-10-02T18:57:48.965Z,100639.00
2018-10-02T19:02:52.007Z,100642.00
2018-10-02T19:07:55.115Z,100648.00
2018-10-02T19:12:58.275Z,100651.00
2018-10-02T19:18:02.392Z,100655.00
2018-10-02T19:23:05.606Z,100643.00
2018-10-02T19:28:08.911Z,100650.00
2018-10-02T19:33:12.103Z,100652.00
2018-10-02T19:38:21.101Z,100653.00
2018-10-02T19:43:24.419Z,100647.00
2018-10-02T19:48:27.525Z,100645.00
2018-10-02T19:53:30.667Z,100655.00
2018-10-02T19:58:33.848Z,100643.00
2018-10-02T20:03:37.080Z,100640.00
2018-10-02T20:08:40.267Z,100638.00
2018-10-02T20:13:43.363Z,100643.00
2018-10-02T20:18:46.451Z,100625.00
2018-10-02T20:23:49.631Z,100634.00
2018-10-02T20:28:52.701Z,100653.00
2018-10-02T20:33:55.780Z,100646.00
2018-10-02T20:38:59.024Z,100653.00
2018-10-02T20:44:02.985Z,100655.00
2018-10-02T20:49:06.333Z,100670.00
2018-10-02T20:54:09.321Z,100653.00
2018-10-02T20:59:12.429Z,100656.00
2018-10-02T21:04:15.517Z,100657.00
2018-10-02T21:09:18.580Z,100660.00
2018-10-02T21:14:21.795Z,100633.00
2018-10-02T21:19:24.900Z,100635.00
2018-10-02T21:24:28.573Z,100635.00
2018-10-02T21:29:31.682Z,100650.00
2018-10-02T21:34:34.925Z,100640.00
2018-10-02T21:39:38.067Z,100634.00
2018-10-02T21:44:41.140Z,100638.00
2018-10-02T21:49:44.173Z,100632.00
2018-10-02T21:54:47.219Z,100636.00
2018-10-02T21:59:50.371Z,100647.00
2018-10-02T22:04:53.402Z,100640.00
2018-10-02T22:09:56.511Z,100640.00
2018-10-02T22:14:59.607Z,100647.00
2018-10-02T22:20:05.236Z,100613.00
2018-10-02T22:25:08.279Z,100635.00
2018-10-02T22:30:12.573Z,100631.00
2018-10-02T22:35:15.708Z,100619.00
2018-10-02T22:40:18.798Z,100610.00
2018-10-02T22:45:21.805Z,100617.00
2018-10-02T22:50:24.894Z,100623.00
2018-10-02T22:55:28.001Z,100639.00
2018-10-02T23:00:31.139Z,100624.00
2018-10-02T23:05:34.232Z,100628.00
2018-10-02T23:10:37.825Z,100611.00
2018-10-02T23:15:41.034Z,100613.00
2018-10-02T23:20:44.052Z,100618.00
2018-10-02T23:25:47.015Z,100622.00
2018-10-02T23:30:50.290Z,100633.00
2018-10-02T23:35:53.369Z,100635.00
2018-10-02T23:40:56.516Z,100634.00
2018-10-02T23:45:59.588Z,100645.00
2018-10-02T23:51:03.154Z,100641.00
2018-10-02T23:56:06.141Z,100634.00
